Time;durP1;ratioP1;P1;durP2;ratioP2;P2;SDS_P1;SDS_P2;PMS_P1;PMS_P2;Temp;Humidity;BMP_temperature;BMP_pressure;BME280_temperature;BME280_humidity;BME280_pressure;Samples;Min_cycle;Max_cycle;Signal;HPM_P1;HPM_P2
2023/12/30 00:02:04;;;;;;;1999.90;999.90;;;9.40;99.90;;;;;;6255906;22;20696;-83
2023/12/30 00:04:30;;;;;;;1999.90;999.90;;;9.40;99.90;;;;;;6229344;22;20472;-82
2023/12/30 00:06:56;;;;;;;1999.90;999.90;;;9.40;99.90;;;;;;6230027;22;20009;-83
2023/12/30 00:09:21;;;;;;;1999.90;999.90;;;9.50;99.90;;;;;;6257670;22;20099;-84
2023/12/30 00:11:47;;;;;;;1999.90;999.90;;;9.60;99.90;;;;;;6230389;22;20009;-83
2023/12/30 00:14:13;;;;;;;1999.90;999.90;;;9.60;99.90;;;;;;6253809;22;20019;-82
2023/12/30 00:16:39;;;;;;;1999.90;999.90;;;9.50;99.90;;;;;;6229340;22;20009;-83
2023/12/30 00:19:05;;;;;;;1999.90;999.90;;;9.50;99.90;;;;;;6232871;22;20028;-83
2023/12/30 00:21:31;;;;;;;1999.90;999.90;;;9.50;99.90;;;;;;6246690;22;20019;-83
2023/12/30 00:23:57;;;;;;;1999.90;999.90;;;9.50;99.90;;;;;;6256109;22;20032;-84
2023/12/30 00:26:26;;;;;;;1999.90;999.90;;;9.50;99.90;;;;;;6253542;22;20421;-83
2023/12/30 00:28:53;;;;;;;1999.90;999.90;;;9.40;99.90;;;;;;6225613;22;20016;-83
2023/12/30 00:31:21;;;;;;;1999.90;999.90;;;9.40;99.90;;;;;;6252211;22;20067;-83
2023/12/30 00:33:48;;;;;;;1999.90;999.90;;;9.50;99.90;;;;;;6252082;22;20012;-83
2023/12/30 00:36:13;;;;;;;1999.90;999.90;;;9.50;99.90;;;;;;6225623;22;20008;-84
2023/12/30 00:38:39;;;;;;;1999.90;999.90;;;9.40;99.90;;;;;;6251155;22;20043;-83
2023/12/30 00:41:05;;;;;;;1999.90;999.90;;;9.60;99.90;;;;;;6253081;22;20009;-84
2023/12/30 00:43:32;;;;;;;1999.90;999.90;;;9.60;99.90;;;;;;6230026;22;19996;-84
2023/12/30 00:45:58;;;;;;;1999.90;999.90;;;9.60;99.90;;;;;;6233830;22;20005;-84
2023/12/30 00:48:23;;;;;;;1999.90;999.90;;;9.60;99.90;;;;;;6227249;22;20035;-84
2023/12/30 00:50:49;;;;;;;1999.90;999.90;;;9.60;99.90;;;;;;6226273;22;20083;-84
2023/12/30 00:53:14;;;;;;;1999.90;999.90;;;9.60;99.90;;;;;;6252278;22;20440;-84
2023/12/30 00:55:40;;;;;;;1999.90;999.90;;;9.60;99.90;;;;;;6226106;22;20001;-83
2023/12/30 00:58:05;;;;;;;1999.90;999.90;;;9.60;99.90;;;;;;6226040;22;20008;-84
2023/12/30 01:00:31;;;;;;;1999.90;999.90;;;9.60;99.90;;;;;;6253463;22;20131;-83
2023/12/30 01:02:56;;;;;;;1999.90;999.90;;;9.60;99.90;;;;;;6252042;22;20419;-83
2023/12/30 01:05:22;;;;;;;1999.90;999.90;;;9.60;99.90;;;;;;6226648;22;20069;-83
2023/12/30 01:07:47;;;;;;;1999.90;999.90;;;9.60;99.90;;;;;;6227278;22;20021;-84
2023/12/30 01:10:16;;;;;;;1999.90;999.90;;;9.70;99.90;;;;;;6252305;22;20063;-84
2023/12/30 01:12:42;;;;;;;1999.90;999.90;;;9.70;99.90;;;;;;6226190;22;20013;-83
2023/12/30 01:15:08;;;;;;;1999.90;999.90;;;9.60;99.90;;;;;;6226385;22;20016;-83
2023/12/30 01:17:33;;;;;;;1999.90;999.90;;;9.60;99.90;;;;;;6226678;22;20339;-84
2023/12/30 01:19:59;;;;;;;1999.90;999.90;;;9.70;99.90;;;;;;6253019;22;20024;-83
2023/12/30 01:22:24;;;;;;;1999.90;999.90;;;9.70;99.90;;;;;;6227758;22;20340;-83
2023/12/30 01:24:50;;;;;;;1999.90;999.90;;;9.80;99.90;;;;;;6253528;22;20035;-84
2023/12/30 01:27:15;;;;;;;1999.90;999.90;;;9.80;99.90;;;;;;6227210;22;20052;-83
2023/12/30 01:29:41;;;;;;;1999.90;999.90;;;9.90;99.90;;;;;;6254195;22;20059;-82
2023/12/30 01:32:06;;;;;;;1999.90;999.90;;;10.10;99.90;;;;;;6255478;22;20005;-83
2023/12/30 01:34:32;;;;;;;1999.90;999.90;;;10.00;99.90;;;;;;6254483;22;20031;-83
2023/12/30 01:36:58;;;;;;;1999.90;999.90;;;10.00;99.90;;;;;;6227845;22;20147;-83
2023/12/30 01:39:23;;;;;;;1999.90;999.90;;;9.90;99.90;;;;;;6227921;22;20455;-83
2023/12/30 01:41:51;;;;;;;1999.90;999.90;;;9.70;99.90;;;;;;6255648;22;20392;-82
2023/12/30 01:44:17;;;;;;;1999.90;999.90;;;9.50;99.90;;;;;;6255298;22;20029;-83
2023/12/30 01:46:43;;;;;;;1999.90;999.90;;;9.30;99.90;;;;;;6255180;22;20413;-82
2023/12/30 01:49:10;;;;;;;1999.90;999.90;;;9.30;99.90;;;;;;6228951;22;20013;-82
2023/12/30 01:51:36;;;;;;;1999.90;999.90;;;9.20;99.90;;;;;;6228961;22;20009;-83
2023/12/30 01:54:04;;;;;;;1999.90;999.90;;;9.10;99.90;;;;;;6228046;22;20135;-82
2023/12/30 01:56:31;;;;;;;1999.90;999.90;;;9.10;99.90;;;;;;6228613;22;20048;-83
2023/12/30 01:58:59;;;;;;;1999.90;999.90;;;9.10;99.90;;;;;;6229089;22;20017;-83
2023/12/30 02:01:27;;;;;;;1999.90;999.90;;;9.10;99.90;;;;;;6228975;22;20353;-83
2023/12/30 02:03:53;;;;;;;1999.90;999.90;;;9.10;99.90;;;;;;6228253;22;20445;-82
2023/12/30 02:06:18;;;;;;;1999.90;999.90;;;9.10;99.90;;;;;;6229627;22;20004;-82
2023/12/30 02:08:45;;;;;;;1999.90;999.90;;;9.10;99.90;;;;;;6255801;22;20019;-83
2023/12/30 02:11:11;;;;;;;1999.90;999.90;;;9.10;99.90;;;;;;6229498;22;20419;-82
2023/12/30 02:13:41;;;;;;;1999.90;999.90;;;9.10;99.90;;;;;;6228428;22;20016;-83
2023/12/30 02:16:07;;;;;;;1999.90;999.90;;;9.10;99.90;;;;;;6229950;22;20039;-83
2023/12/30 02:18:32;;;;;;;1999.90;999.90;;;9.10;99.90;;;;;;6242269;22;20013;-83
2023/12/30 02:20:58;;;;;;;1999.90;999.90;;;9.10;99.90;;;;;;6243242;22;20008;-83
2023/12/30 02:23:24;;;;;;;1999.90;999.90;;;9.10;99.90;;;;;;6261558;22;20008;-82
2023/12/30 02:25:50;;;;;;;1999.90;999.90;;;9.10;99.90;;;;;;6256192;22;20005;-83
2023/12/30 02:28:16;;;;;;;1999.90;999.90;;;9.10;99.90;;;;;;6228617;22;20017;-83
2023/12/30 02:30:42;;;;;;;1999.90;999.90;;;9.10;99.90;;;;;;6256257;22;20433;-83
2023/12/30 02:33:07;;;;;;;1999.90;999.90;;;9.10;99.90;;;;;;6255882;22;20076;-83
2023/12/30 02:35:33;;;;;;;1999.90;999.90;;;9.10;99.90;;;;;;6256823;22;20192;-83
2023/12/30 02:37:58;;;;;;;1999.90;999.90;;;9.10;99.90;;;;;;6264107;22;20048;-82
2023/12/30 02:40:24;;;;;;;1999.90;999.90;;;9.20;99.90;;;;;;6271967;22;20000;-83
2023/12/30 02:42:50;;;;;;;1999.90;999.90;;;9.10;99.90;;;;;;6225944;22;20091;-83
2023/12/30 02:45:15;;;;;;;1999.90;999.90;;;9.20;99.90;;;;;;6226424;22;20016;-82
2023/12/30 02:47:41;;;;;;;1999.90;999.90;;;9.10;99.90;;;;;;6250699;22;20008;-83
2023/12/30 02:50:07;;;;;;;1999.90;999.90;;;9.20;99.90;;;;;;6225514;22;20467;-83
2023/12/30 02:52:33;;;;;;;1999.90;999.90;;;9.20;99.90;;;;;;6224899;22;20009;-83
2023/12/30 02:55:00;;;;;;;1999.90;999.90;;;9.20;99.90;;;;;;6225378;22;20013;-82
2023/12/30 02:57:26;;;;;;;1999.90;999.90;;;9.10;99.90;;;;;;6227794;22;20070;-83
2023/12/30 02:59:52;;;;;;;1999.90;999.90;;;9.10;99.90;;;;;;6227083;22;20012;-83
2023/12/30 03:02:18;;;;;;;1999.90;999.90;;;9.20;99.90;;;;;;6252137;22;20539;-83
2023/12/30 03:04:43;;;;;;;1999.90;999.90;;;9.10;99.90;;;;;;6226130;22;20341;-83
2023/12/30 03:07:09;;;;;;;1999.90;999.90;;;9.20;99.90;;;;;;6226929;22;20001;-84
2023/12/30 03:09:34;;;;;;;1999.90;999.90;;;9.10;99.90;;;;;;6226331;22;20008;-83
2023/12/30 03:12:02;;;;;;;1999.90;999.90;;;9.10;99.90;;;;;;6226278;22;20467;-84
2023/12/30 03:14:27;;;;;;;1999.90;999.90;;;9.10;99.90;;;;;;6226255;22;20099;-83
2023/12/30 03:16:53;;;;;;;1999.90;999.90;;;9.00;99.90;;;;;;6226250;22;20075;-83
2023/12/30 03:19:19;;;;;;;1999.90;999.90;;;8.90;99.90;;;;;;6251641;22;20008;-83
2023/12/30 03:21:45;;;;;;;1999.90;999.90;;;9.00;99.90;;;;;;6253969;22;20005;-83
2023/12/30 03:24:11;;;;;;;1999.90;999.90;;;9.00;99.90;;;;;;6254461;22;20467;-83
2023/12/30 03:26:36;;;;;;;1999.90;999.90;;;9.20;99.90;;;;;;6237905;22;20077;-82
2023/12/30 03:29:02;;;;;;;1999.90;999.90;;;9.00;99.90;;;;;;6253077;22;20094;-83
2023/12/30 03:31:28;;;;;;;1999.90;999.90;;;9.00;99.90;;;;;;6226975;22;20019;-83
2023/12/30 03:33:54;;;;;;;1999.90;999.90;;;9.00;99.90;;;;;;6226015;22;20452;-83
2023/12/30 03:36:20;;;;;;;1999.90;999.90;;;9.00;99.90;;;;;;6253646;22;20020;-84
2023/12/30 03:38:50;;;;;;;1999.90;999.90;;;8.90;99.90;;;;;;6226276;22;20035;-83
2023/12/30 03:41:16;;;;;;;1999.90;999.90;;;8.90;99.90;;;;;;6251850;22;20009;-84
2023/12/30 03:43:42;;;;;;;1999.90;999.90;;;8.90;99.90;;;;;;6253203;22;20434;-83
2023/12/30 03:46:08;;;;;;;1999.90;999.90;;;8.90;99.90;;;;;;6227153;22;20087;-83
2023/12/30 03:48:33;;;;;;;1999.90;999.90;;;9.00;99.90;;;;;;6253952;22;20034;-84
2023/12/30 03:50:59;;;;;;;1999.90;999.90;;;9.00;99.90;;;;;;6226623;22;20009;-83
2023/12/30 03:53:25;;;;;;;1999.90;999.90;;;9.00;99.90;;;;;;6253536;22;20090;-83
2023/12/30 03:55:50;;;;;;;1999.90;999.90;;;9.00;99.90;;;;;;6226719;22;20004;-83
2023/12/30 03:58:16;;;;;;;1999.90;999.90;;;8.90;99.90;;;;;;6252215;22;20455;-83
2023/12/30 04:00:42;;;;;;;1999.90;999.90;;;8.90;99.90;;;;;;6227015;22;20444;-83
2023/12/30 04:03:07;;;;;;;1999.90;999.90;;;8.90;99.90;;;;;;6254475;22;20441;-83
2023/12/30 04:05:33;;;;;;;1999.90;999.90;;;9.00;99.90;;;;;;6226901;22;20452;-83
2023/12/30 04:07:58;;;;;;;1999.90;999.90;;;9.00;99.90;;;;;;6227076;22;20015;-83
2023/12/30 04:10:24;;;;;;;1999.90;999.90;;;9.00;99.90;;;;;;6227370;22;20492;-84
2023/12/30 04:12:49;;;;;;;1999.90;999.90;;;9.00;99.90;;;;;;6254199;22;20015;-83
2023/12/30 04:15:15;;;;;;;1999.90;999.90;;;9.00;99.90;;;;;;6227161;22;20391;-83
2023/12/30 04:17:41;;;;;;;1999.90;999.90;;;9.00;99.90;;;;;;6227798;22;20377;-84
2023/12/30 04:20:07;;;;;;;1999.90;999.90;;;9.00;99.90;;;;;;6227579;22;20008;-83
2023/12/30 04:22:33;;;;;;;1999.90;999.90;;;9.00;99.90;;;;;;6227558;22;20349;-83
2023/12/30 04:24:59;;;;;;;1999.90;999.90;;;9.00;99.90;;;;;;6254467;22;20012;-83
2023/12/30 04:27:25;;;;;;;1999.90;999.90;;;9.00;99.90;;;;;;6227338;22;20087;-83
2023/12/30 04:29:51;;;;;;;1999.90;999.90;;;9.00;99.90;;;;;;6227652;22;20076;-83
2023/12/30 04:32:16;;;;;;;1999.90;999.90;;;9.00;99.90;;;;;;6228051;22;20529;-83
2023/12/30 04:34:42;;;;;;;1999.90;999.90;;;9.00;99.90;;;;;;6253200;22;20092;-83
2023/12/30 04:37:07;;;;;;;1999.90;999.90;;;9.00;99.90;;;;;;6228567;22;20028;-83
2023/12/30 04:39:33;;;;;;;1999.90;999.90;;;9.10;99.90;;;;;;6255634;22;20008;-82
2023/12/30 04:41:59;;;;;;;1999.90;999.90;;;9.00;99.90;;;;;;6256696;22;20004;-83
2023/12/30 04:44:25;;;;;;;1999.90;999.90;;;9.10;99.90;;;;;;6253663;22;20017;-83
2023/12/30 04:46:50;;;;;;;1999.90;999.90;;;9.10;99.90;;;;;;6229010;22;20031;-83
2023/12/30 04:49:16;;;;;;;1999.90;999.90;;;9.10;99.90;;;;;;6256135;22;20015;-83
2023/12/30 04:51:41;;;;;;;1999.90;999.90;;;9.20;99.90;;;;;;6229275;22;20464;-83
2023/12/30 04:54:07;;;;;;;1999.90;999.90;;;9.10;99.90;;;;;;6256400;22;20040;-83
2023/12/30 04:56:33;;;;;;;1999.90;999.90;;;9.10;99.90;;;;;;6258098;22;20439;-82
2023/12/30 04:58:59;;;;;;;1999.90;999.90;;;9.10;99.90;;;;;;6275820;22;20032;-82
2023/12/30 05:01:25;;;;;;;1999.90;999.90;;;9.10;99.90;;;;;;6261233;22;20016;-82
2023/12/30 05:03:50;;;;;;;1999.90;999.90;;;9.10;99.90;;;;;;6226970;22;20020;-83
2023/12/30 05:06:23;;;;;;;1999.90;999.90;;;9.10;99.90;;;;;;6227557;22;20047;-83
2023/12/30 05:08:50;;;;;;;1999.90;999.90;;;9.00;99.90;;;;;;6252348;22;20499;-83
2023/12/30 05:11:15;;;;;;;1999.90;999.90;;;9.00;99.90;;;;;;6227377;22;20055;-83
2023/12/30 05:13:43;;;;;;;1999.90;999.90;;;9.00;99.90;;;;;;6252288;22;20031;-83
2023/12/30 05:16:09;;;;;;;1999.90;999.90;;;9.10;99.90;;;;;;6227193;22;20455;-83
2023/12/30 05:18:34;;;;;;;1999.90;999.90;;;9.00;99.90;;;;;;6227311;22;20016;-83
2023/12/30 05:21:00;;;;;;;1999.90;999.90;;;9.00;99.90;;;;;;6227678;22;20135;-83
2023/12/30 05:23:26;;;;;;;1999.90;999.90;;;9.10;99.90;;;;;;6227360;22;20469;-83
2023/12/30 05:25:51;;;;;;;1999.90;999.90;;;9.00;99.90;;;;;;6254666;22;20005;-83
2023/12/30 05:28:17;;;;;;;1999.90;999.90;;;8.90;99.90;;;;;;6227777;22;20012;-83
2023/12/30 05:30:43;;;;;;;1999.90;999.90;;;8.90;99.90;;;;;;6254704;22;20040;-83
2023/12/30 05:33:08;;;;;;;1999.90;999.90;;;8.90;99.90;;;;;;6227674;22;20082;-84
2023/12/30 05:35:35;;;;;;;1999.90;999.90;;;8.90;99.90;;;;;;6254108;22;20012;-83
2023/12/30 05:38:02;;;;;;;1999.90;999.90;;;9.00;99.90;;;;;;6227497;22;20035;-84
2023/12/30 05:40:28;;;;;;;1999.90;999.90;;;9.00;99.90;;;;;;6227601;22;20087;-83
2023/12/30 05:42:53;;;;;;;1999.90;999.90;;;9.00;99.90;;;;;;6228323;22;20440;-83
2023/12/30 05:45:19;;;;;;;1999.90;999.90;;;9.10;99.90;;;;;;6228313;22;20388;-83
2023/12/30 05:47:44;;;;;;;1999.90;999.90;;;9.10;99.90;;;;;;6228573;22;20012;-84
2023/12/30 05:50:12;;;;;;;1999.90;999.90;;;9.10;99.90;;;;;;6253939;22;20004;-83
2023/12/30 05:52:38;;;;;;;1999.90;999.90;;;9.00;99.90;;;;;;6228030;22;20067;-83
2023/12/30 05:55:03;;;;;;;1999.90;999.90;;;8.80;99.90;;;;;;6228359;22;20453;-83
2023/12/30 05:57:29;;;;;;;1999.90;999.90;;;8.70;99.90;;;;;;6256163;22;20005;-83
2023/12/30 05:59:54;;;;;;;1999.90;999.90;;;8.60;99.90;;;;;;6229030;22;20015;-83
2023/12/30 06:02:21;;;;;;;1999.90;999.90;;;8.60;99.90;;;;;;6255474;22;20447;-83
2023/12/30 06:04:46;;;;;;;1999.90;999.90;;;8.50;99.90;;;;;;6226773;22;20087;-83
2023/12/30 06:07:12;;;;;;;1999.90;999.90;;;8.60;99.90;;;;;;6226983;22;20024;-83
2023/12/30 06:09:38;;;;;;;1999.90;999.90;;;8.70;99.90;;;;;;6236118;22;20009;-83
2023/12/30 06:12:03;;;;;;;1999.90;999.90;;;8.80;99.90;;;;;;6239540;22;20009;-83
2023/12/30 06:14:29;;;;;;;1999.90;999.90;;;8.80;99.90;;;;;;6268550;22;20023;-83
2023/12/30 06:16:55;;;;;;;1999.90;999.90;;;8.80;99.90;;;;;;6239860;22;20004;-84
2023/12/30 06:19:20;;;;;;;1999.90;999.90;;;8.80;99.90;;;;;;6226687;22;20009;-83
2023/12/30 06:21:46;;;;;;;1999.90;999.90;;;8.80;99.90;;;;;;6253638;22;20448;-83
2023/12/30 06:24:12;;;;;;;1999.90;999.90;;;8.80;99.90;;;;;;6252914;22;20340;-83
2023/12/30 06:26:38;;;;;;;1999.90;999.90;;;8.80;99.90;;;;;;6226152;22;20005;-83
2023/12/30 06:29:05;;;;;;;1999.90;999.90;;;8.80;99.90;;;;;;6226101;22;20036;-83
2023/12/30 06:31:31;;;;;;;1999.90;999.90;;;8.80;99.90;;;;;;6227505;22;20009;-83
2023/12/30 06:33:56;;;;;;;1999.90;999.90;;;8.80;99.90;;;;;;6254075;22;20083;-84
2023/12/30 06:36:23;;;;;;;1999.90;999.90;;;8.80;99.90;;;;;;6227855;22;20009;-83
2023/12/30 06:38:49;;;;;;;1999.90;999.90;;;8.80;99.90;;;;;;6253576;22;20015;-83
2023/12/30 06:41:18;;;;;;;1999.90;999.90;;;8.70;99.90;;;;;;6255196;22;20151;-83
2023/12/30 06:43:44;;;;;;;1999.90;999.90;;;8.70;99.90;;;;;;6254788;22;20009;-83
2023/12/30 06:46:10;;;;;;;1999.90;999.90;;;8.70;99.90;;;;;;6255136;22;20448;-82
2023/12/30 06:48:35;;;;;;;1999.90;999.90;;;8.70;99.90;;;;;;6227931;22;20013;-83
2023/12/30 06:51:02;;;;;;;1999.90;999.90;;;8.70;99.90;;;;;;6253859;22;20012;-83
2023/12/30 06:53:31;;;;;;;1999.90;999.90;;;8.70;99.90;;;;;;6227150;22;20020;-83
2023/12/30 06:56:04;;;;;;;1999.90;999.90;;;8.70;99.90;;;;;;6228122;22;20004;-83
2023/12/30 06:58:30;;;;;;;1999.90;999.90;;;8.80;99.90;;;;;;6228199;22;20008;-82
2023/12/30 07:00:56;;;;;;;1999.90;999.90;;;8.90;99.90;;;;;;6228058;22;20020;-83
2023/12/30 07:03:22;;;;;;;1999.90;999.90;;;9.00;99.90;;;;;;6229733;22;20448;-83
2023/12/30 07:05:50;;;;;;;1999.90;999.90;;;8.80;99.90;;;;;;6233164;22;20001;-83
2023/12/30 07:08:16;;;;;;;1999.90;999.90;;;8.70;99.90;;;;;;6241663;22;20008;-83
2023/12/30 07:10:42;;;;;;;1999.90;999.90;;;8.80;99.90;;;;;;6206239;22;20001;-83
2023/12/30 07:13:08;;;;;;;1999.90;999.90;;;8.80;99.90;;;;;;6230795;22;20096;-83
2023/12/30 07:15:34;;;;;;;1999.90;999.90;;;8.80;99.90;;;;;;6247419;22;20016;-82
2023/12/30 07:18:01;;;;;;;1999.90;999.90;;;8.80;99.90;;;;;;6225557;22;20031;-83
2023/12/30 07:20:27;;;;;;;1999.90;999.90;;;8.90;99.90;;;;;;6234189;22;20017;-83
2023/12/30 07:22:53;;;;;;;1999.90;999.90;;;8.90;99.90;;;;;;6251656;22;20015;-83
2023/12/30 07:25:19;;;;;;;1999.90;999.90;;;8.90;99.90;;;;;;6253624;22;20016;-84
2023/12/30 07:27:45;;;;;;;1999.90;999.90;;;8.90;99.90;;;;;;6227081;22;20433;-84
2023/12/30 07:30:11;;;;;;;1999.90;999.90;;;9.10;99.90;;;;;;6229105;22;20029;-83
2023/12/30 07:32:37;;;;;;;1999.90;999.90;;;8.90;99.90;;;;;;6228565;22;20075;-83
2023/12/30 07:35:05;;;;;;;1999.90;999.90;;;9.00;99.90;;;;;;6229048;22;20096;-83
2023/12/30 07:37:32;;;;;;;1999.90;999.90;;;8.80;99.90;;;;;;6255893;22;20067;-84
2023/12/30 07:39:57;;;;;;;1999.90;999.90;;;8.90;99.90;;;;;;6253526;22;20399;-83
2023/12/30 07:42:23;;;;;;;1999.90;999.90;;;8.90;99.90;;;;;;6229546;22;20076;-83
2023/12/30 07:44:48;;;;;;;1999.90;999.90;;;8.80;99.90;;;;;;6255477;22;20013;-83
2023/12/30 07:47:14;;;;;;;1999.90;999.90;;;8.90;99.90;;;;;;6255739;22;20390;-83
2023/12/30 07:49:39;;;;;;;1999.90;999.90;;;8.90;99.90;;;;;;6228422;22;20063;-83
2023/12/30 07:52:05;;;;;;;1999.90;999.90;;;9.00;99.90;;;;;;6255490;22;20083;-83
2023/12/30 07:54:31;;;;;;;1999.90;999.90;;;9.10;99.90;;;;;;6231056;22;20012;-83
2023/12/30 07:56:56;;;;;;;1999.90;999.90;;;9.10;99.90;;;;;;6233321;22;20008;-83
2023/12/30 07:59:22;;;;;;;1999.90;999.90;;;9.10;99.90;;;;;;6231237;22;20008;-83
2023/12/30 08:01:48;;;;;;;1999.90;999.90;;;9.20;99.90;;;;;;6229826;22;20005;-83
2023/12/30 08:04:13;;;;;;;1999.90;999.90;;;9.20;99.90;;;;;;6229430;22;20005;-83
2023/12/30 08:06:40;;;;;;;1999.90;999.90;;;9.20;99.90;;;;;;6228524;22;20009;-83
2023/12/30 08:09:06;;;;;;;1999.90;999.90;;;9.20;99.90;;;;;;6229609;22;20091;-84
2023/12/30 08:11:35;;;;;;;1999.90;999.90;;;9.20;99.90;;;;;;6255197;22;20004;-84
2023/12/30 08:14:00;;;;;;;1999.90;999.90;;;9.20;99.90;;;;;;6231130;22;20115;-82
2023/12/30 08:16:26;;;;;;;1999.90;999.90;;;9.30;99.90;;;;;;6259298;22;20448;-82
2023/12/30 08:18:51;;;;;;;1999.90;999.90;;;9.30;99.90;;;;;;6231927;22;20017;-83
2023/12/30 08:21:17;;;;;;;1999.90;999.90;;;9.30;99.90;;;;;;6259179;22;20005;-83
2023/12/30 08:23:43;;;;;;;1999.90;999.90;;;9.40;99.90;;;;;;6257560;22;20009;-85
2023/12/30 08:26:08;;;;;;;1999.90;999.90;;;9.40;99.90;;;;;;6229054;22;20012;-85
2023/12/30 08:28:34;;;;;;;1999.90;999.90;;;9.40;99.90;;;;;;6228034;22;20015;-85
2023/12/30 08:31:01;;;;;;;1999.90;999.90;;;9.50;99.90;;;;;;6228742;22;20008;-85
2023/12/30 08:33:27;;;;;;;1999.90;999.90;;;9.50;99.90;;;;;;6229004;22;20012;-83
2023/12/30 08:35:53;;;;;;;1999.90;999.90;;;9.50;99.90;;;;;;6229538;22;20012;-84
2023/12/30 08:38:19;;;;;;;1999.90;999.90;;;9.60;99.90;;;;;;6227056;22;20299;-84
2023/12/30 08:40:44;;;;;;;1999.90;999.90;;;9.60;99.90;;;;;;6254272;22;20081;-84
2023/12/30 08:43:12;;;;;;;1999.90;999.90;;;9.60;99.90;;;;;;6228571;22;20079;-81
2023/12/30 08:45:38;;;;;;;1999.90;999.90;;;9.60;99.90;;;;;;6228891;22;20449;-82
2023/12/30 08:48:04;;;;;;;1999.90;999.90;;;9.60;99.90;;;;;;6228576;22;20017;-84
2023/12/30 08:50:33;;;;;;;1999.90;999.90;;;9.70;99.90;;;;;;6256168;22;20004;-82
2023/12/30 08:52:59;;;;;;;1999.90;999.90;;;9.70;99.90;;;;;;6238018;22;20015;-83
2023/12/30 08:55:24;;;;;;;1999.90;999.90;;;9.80;99.90;;;;;;6232327;22;20047;-85
2023/12/30 08:57:50;;;;;;;1999.90;999.90;;;9.70;99.90;;;;;;6234806;22;20031;-85
2023/12/30 09:00:16;;;;;;;1999.90;999.90;;;9.90;99.90;;;;;;6239657;22;20008;-85
2023/12/30 09:02:46;;;;;;;1999.90;999.90;;;9.90;99.90;;;;;;6258500;22;20455;-85
2023/12/30 09:05:18;;;;;;;1999.90;999.90;;;9.90;99.90;;;;;;6230654;22;20816;-82
2023/12/30 09:07:45;;;;;;;1999.90;999.90;;;10.10;99.90;;;;;;6254425;22;20460;-82
2023/12/30 09:10:11;;;;;;;1999.90;999.90;;;10.10;99.90;;;;;;6228315;22;20008;-80
2023/12/30 09:12:36;;;;;;;1999.90;999.90;;;10.10;99.90;;;;;;6256059;22;20005;-81
2023/12/30 09:15:02;;;;;;;1999.90;999.90;;;10.20;99.90;;;;;;6240581;22;20154;-80
2023/12/30 09:17:28;;;;;;;1999.90;999.90;;;10.30;99.90;;;;;;6256796;22;20443;-77
2023/12/30 09:19:54;;;;;;;1999.90;999.90;;;10.40;99.90;;;;;;6283123;22;20005;-77
2023/12/30 09:22:19;;;;;;;1999.90;999.90;;;10.40;99.90;;;;;;6282884;22;20008;-77
2023/12/30 09:24:45;;;;;;;1999.90;999.90;;;10.50;99.90;;;;;;6273463;22;20011;-76
2023/12/30 09:27:11;;;;;;;1999.90;999.90;;;10.60;99.90;;;;;;6252182;22;20015;-77
2023/12/30 09:29:37;;;;;;;1999.90;999.90;;;10.70;99.90;;;;;;6225331;22;20511;-77
2023/12/30 09:32:02;;;;;;;1999.90;999.90;;;10.80;99.90;;;;;;6252385;22;20013;-78
2023/12/30 09:34:28;;;;;;;1999.90;999.90;;;10.90;99.90;;;;;;6251570;22;20008;-77
2023/12/30 09:36:54;;;;;;;1999.90;999.90;;;11.00;99.90;;;;;;6252327;22;20083;-77
2023/12/30 09:39:20;;;;;;;1999.90;999.90;;;11.10;99.90;;;;;;6250631;22;20472;-77
2023/12/30 09:41:45;;;;;;;1999.90;999.90;;;11.10;99.90;;;;;;6252364;22;20379;-75
2023/12/30 09:44:12;;;;;;;1999.90;999.90;;;11.20;99.90;;;;;;6251759;22;20044;-76
2023/12/30 09:46:39;;;;;;;1999.90;999.90;;;11.20;99.90;;;;;;6252102;22;20108;-77
2023/12/30 09:49:06;;;;;;;1999.90;999.90;;;11.30;99.90;;;;;;6252194;22;20009;-76
2023/12/30 09:51:32;;;;;;;1999.90;999.90;;;11.30;99.90;;;;;;6225131;22;20028;-76
2023/12/30 09:53:59;;;;;;;1999.90;999.90;;;11.30;99.90;;;;;;6254497;22;20044;-78
2023/12/30 09:56:25;;;;;;;1999.90;999.90;;;11.30;99.90;;;;;;6254376;22;20064;-79
2023/12/30 09:58:53;;;;;;;1999.90;999.90;;;11.30;99.90;;;;;;6225447;22;20019;-78
2023/12/30 10:01:20;;;;;;;1999.90;999.90;;;11.20;99.90;;;;;;6252440;22;20005;-78
2023/12/30 10:03:46;;;;;;;1999.90;999.90;;;11.30;99.90;;;;;;6224916;22;20008;-78
2023/12/30 10:06:14;;;;;;;1999.90;999.90;;;11.20;99.90;;;;;;6224745;22;20008;-78
2023/12/30 10:08:42;;;;;;;1999.90;999.90;;;11.20;99.90;;;;;;6252215;22;20392;-77
2023/12/30 10:11:08;;;;;;;1999.90;999.90;;;11.10;99.90;;;;;;6251872;22;20000;-77
2023/12/30 10:13:37;;;;;;;1999.90;999.90;;;11.10;99.90;;;;;;6251699;22;20013;-77
2023/12/30 10:16:05;;;;;;;1999.90;999.90;;;11.20;99.90;;;;;;6251621;22;20009;-79
2023/12/30 10:18:37;;;;;;;1999.90;999.90;;;11.20;99.90;;;;;;6224822;22;20008;-78
2023/12/30 10:21:06;;;;;;;1999.90;999.90;;;11.20;99.90;;;;;;6251986;22;20092;-77
2023/12/30 10:23:33;;;;;;;1999.90;999.90;;;11.30;99.90;;;;;;6251559;22;20025;-77
2023/12/30 10:25:59;;;;;;;1999.90;999.90;;;11.40;99.90;;;;;;6225012;22;20460;-79
2023/12/30 10:28:25;;;;;;;1999.90;999.90;;;11.40;99.90;;;;;;6224747;22;20013;-77
2023/12/30 10:31:04;;;;;;;1999.90;999.90;;;11.40;99.90;;;;;;6224847;22;20011;-77
2023/12/30 10:33:30;;;;;;;1999.90;999.90;;;11.50;99.90;;;;;;6251475;22;20009;-77
2023/12/30 10:35:56;;;;;;;1999.90;999.90;;;11.60;99.90;;;;;;6251437;22;20083;-77
2023/12/30 10:38:23;;;;;;;1999.90;999.90;;;11.50;99.90;;;;;;6225089;22;20008;-77
2023/12/30 10:40:50;;;;;;;1999.90;999.90;;;11.50;99.90;;;;;;6251714;22;20011;-77
2023/12/30 10:43:17;;;;;;;1999.90;999.90;;;11.60;99.90;;;;;;6251571;22;20005;-77
2023/12/30 10:45:42;;;;;;;1999.90;999.90;;;11.60;99.90;;;;;;6251095;22;20507;-77
2023/12/30 10:48:08;;;;;;;1999.90;999.90;;;11.60;99.90;;;;;;6251493;22;20001;-77
2023/12/30 10:50:38;;;;;;;1999.90;999.90;;;11.80;99.90;;;;;;6251361;22;20008;-77
2023/12/30 10:53:18;;;;;;;1999.90;999.90;;;11.80;99.90;;;;;;6250512;22;20008;-77
2023/12/30 10:55:50;;;;;;;1999.90;999.90;;;11.80;99.90;;;;;;6249462;22;20060;-77
2023/12/30 10:58:22;;;;;;;1999.90;999.90;;;11.70;99.90;;;;;;6251781;22;20055;-77
2023/12/30 11:00:53;;;;;;;1999.90;999.90;;;11.80;99.90;;;;;;6224179;22;20009;-78
2023/12/30 11:03:20;;;;;;;1999.90;999.90;;;11.90;99.90;;;;;;6249677;22;20075;-77
2023/12/30 11:05:57;;;;;;;1999.90;999.90;;;11.90;99.90;;;;;;6251193;22;20092;-78
2023/12/30 11:08:23;;;;;;;1999.90;999.90;;;11.80;99.90;;;;;;6251555;22;20056;-77
2023/12/30 11:10:50;;;;;;;1999.90;999.90;;;11.90;99.90;;;;;;6251339;22;20379;-77
2023/12/30 11:13:19;;;;;;;1999.90;999.90;;;12.10;99.90;;;;;;6250964;22;19996;-78
2023/12/30 11:15:45;;;;;;;1999.90;999.90;;;12.20;99.90;;;;;;6251004;22;20009;-78
2023/12/30 11:18:12;;;;;;;1999.90;999.90;;;12.20;99.90;;;;;;6252858;22;20008;-78
2023/12/30 11:20:48;;;;;;;1999.90;999.90;;;12.10;99.90;;;;;;6251536;22;20005;-75
2023/12/30 11:23:15;;;;;;;1999.90;999.90;;;12.00;99.90;;;;;;6252515;22;20015;-77
2023/12/30 11:25:46;;;;;;;1999.90;999.90;;;11.80;99.90;;;;;;6252769;22;20009;-76
2023/12/30 11:28:16;;;;;;;1999.90;999.90;;;11.70;99.90;;;;;;6256049;22;20024;-77
2023/12/30 11:30:44;;;;;;;1999.90;999.90;;;11.60;99.90;;;;;;6252979;22;20005;-77
2023/12/30 11:33:10;;;;;;;1999.90;999.90;;;11.50;99.90;;;;;;6252615;22;20004;-77
2023/12/30 11:35:37;;;;;;;1999.90;999.90;;;11.50;99.90;;;;;;6252432;22;20012;-76
2023/12/30 11:38:09;;;;;;;1999.90;999.90;;;11.40;99.90;;;;;;6252705;22;20071;-77
2023/12/30 11:40:41;;;;;;;1999.90;999.90;;;11.40;99.90;;;;;;6253745;22;20015;-76
2023/12/30 11:43:10;;;;;;;1999.90;999.90;;;11.40;99.90;;;;;;6252167;22;20008;-76
2023/12/30 11:45:37;;;;;;;1999.90;999.90;;;11.60;99.90;;;;;;6252393;22;20009;-76
2023/12/30 11:48:03;;;;;;;1999.90;999.90;;;11.80;99.90;;;;;;6252530;22;20005;-76
2023/12/30 11:50:29;;;;;;;1999.90;999.90;;;12.00;99.90;;;;;;6224863;22;20013;-76
2023/12/30 11:52:56;;;;;;;1999.90;999.90;;;12.20;99.90;;;;;;6225124;22;20009;-76
2023/12/30 11:55:23;;;;;;;1999.90;999.90;;;12.40;99.90;;;;;;6224882;22;20017;-76
2023/12/30 11:57:49;;;;;;;1999.90;999.90;;;12.40;99.90;;;;;;6225436;22;20448;-76
2023/12/30 12:00:15;;;;;;;1999.90;999.90;;;12.40;99.90;;;;;;6252849;22;20015;-76
2023/12/30 12:02:41;;;;;;;1999.90;999.90;;;12.30;99.90;;;;;;6252281;22;20400;-76